Time;durP1;ratioP1;P1;durP2;ratioP2;P2;SDS_P1;SDS_P2;PMS_P1;PMS_P2;Temp;Humidity;BMP_temperature;BMP_pressure;BME280_temperature;BME280_humidity;BME280_pressure;Samples;Min_cycle;Max_cycle;Signal;HPM_P1;HPM_P2
2022/03/08 00:00:57;;;;;;;;;;;;;;;22.61;20.05;97741.09;5073811;28;983;-73
2022/03/08 00:03:23;;;;;;;;;;;;;;;22.71;19.60;97739.16;5073783;28;1100;-73
2022/03/08 00:05:48;;;;;;;;;;;;;;;22.73;19.78;97730.19;5073732;28;1044;-73
2022/03/08 00:08:14;;;;;;;;;;;;;;;22.71;19.90;97733.47;5073623;28;1095;-73
2022/03/08 00:10:39;;;;;;;;;;;;;;;21.46;20.55;97668.81;5073681;28;1192;-73
2022/03/08 00:13:04;;;;;;;;;;;;;;;22.75;19.86;97739.03;5073758;28;995;-72
2022/03/08 00:15:30;;;;;;;;;;;;;;;22.73;19.77;97736.63;5053437;28;1988;-72
2022/03/08 00:17:55;;;;;;;;;;;;;;;22.53;20.21;97745.44;5053570;28;974;-73
2022/03/08 00:20:21;;;;;;;;;;;;;;;22.27;20.63;97739.03;5053150;28;975;-73
2022/03/08 00:22:46;;;;;;;;;;;;;;;22.60;20.02;97738.75;5053542;28;1033;-73
2022/03/08 00:25:12;;;;;;;;;;;;;;;22.67;19.99;97735.63;5053285;28;939;-72
2022/03/08 00:27:38;;;;;;;;;;;;;;;22.62;19.92;97741.91;5053580;28;1034;-73
2022/03/08 00:30:05;;;;;;;;;;;;;;;22.29;20.03;97736.53;5052422;28;1047;-72
2022/03/08 00:32:30;;;;;;;;;;;;;;;22.38;20.11;97737.88;5053235;28;1278;-73
2022/03/08 00:34:55;;;;;;;;;;;;;;;22.62;19.88;97741.91;5052888;28;1071;-73
2022/03/08 00:37:24;;;;;;;;;;;;;;;22.38;20.09;97737.88;5053127;28;1926;-73
2022/03/08 00:39:49;;;;;;;;;;;;;;;22.57;20.02;97745.31;5053264;28;973;-73
2022/03/08 00:42:15;;;;;;;;;;;;;;;22.58;19.82;97741.22;5053519;28;1065;-73
2022/03/08 00:44:41;;;;;;;;;;;;;;;22.34;20.01;97743.69;4993619;28;1299;-73
2022/03/08 00:47:06;;;;;;;;;;;;;;;22.03;20.71;97740.63;5038600;28;1037;-73
2022/03/08 00:49:32;;;;;;;;;;;;;;;22.36;20.32;97733.44;5053107;28;1031;-72
2022/03/08 00:51:57;;;;;;;;;;;;;;;22.17;20.07;97728.84;5013204;28;1321;-73
2022/03/08 00:54:23;;;;;;;;;;;;;;;22.59;19.92;97725.81;5013711;28;1139;-73
2022/03/08 00:56:48;;;;;;;;;;;;;;;22.51;19.71;97725.25;5013282;28;1902;-72
2022/03/08 00:59:14;;;;;;;;;;;;;;;23.15;19.11;97722.19;5013354;28;1344;-73
2022/03/08 01:01:39;;;;;;;;;;;;;;;22.34;20.16;97724.63;4996900;28;1032;-72
2022/03/08 01:04:05;;;;;;;;;;;;;;;22.21;20.53;97718.19;5013265;28;955;-73
2022/03/08 01:06:30;;;;;;;;;;;;;;;22.23;20.22;97720.56;5013683;28;1054;-72
2022/03/08 01:08:56;;;;;;;;;;;;;;;22.84;19.58;97717.19;5013239;28;1077;-73
2022/03/08 01:11:24;;;;;;;;;;;;;;;22.70;19.54;97714.88;5013217;28;1029;-73
2022/03/08 01:13:50;;;;;;;;;;;;;;;22.66;19.93;97714.22;4974232;28;1068;-72
2022/03/08 01:16:16;;;;;;;;;;;;;;;22.58;19.90;97712.88;5003270;28;1985;-73
2022/03/08 01:18:42;;;;;;;;;;;;;;;22.69;19.55;97716.13;5012993;28;1003;-73
2022/03/08 01:21:07;;;;;;;;;;;;;;;22.60;19.95;97716.84;5013216;28;1006;-72
2022/03/08 01:23:32;;;;;;;;;;;;;;;22.43;19.81;97717.44;5012725;28;1407;-72
2022/03/08 01:25:58;;;;;;;;;;;;;;;22.61;19.89;97711.97;5013174;28;940;-73
2022/03/08 01:28:23;;;;;;;;;;;;;;;22.54;20.15;97717.88;5013112;28;1023;-72
2022/03/08 01:30:49;;;;;;;;;;;;;;;22.55;20.22;97713.78;5012789;28;1039;-72
2022/03/08 01:33:15;;;;;;;;;;;;;;;22.48;20.05;97725.38;5012843;28;1065;-73
2022/03/08 01:35:43;;;;;;;;;;;;;;;22.41;19.94;97714.28;5014759;28;1973;-73
2022/03/08 01:38:08;;;;;;;;;;;;;;;22.95;19.60;97718.88;5032728;28;1035;-72
2022/03/08 01:40:34;;;;;;;;;;;;;;;22.66;19.82;97717.03;5017395;28;1114;-73
2022/03/08 01:43:00;;;;;;;;;;;;;;;22.43;20.24;97723.13;5036529;28;1167;-72
2022/03/08 01:45:26;;;;;;;;;;;;;;;22.62;19.93;97719.22;5046425;28;1002;-73
2022/03/08 01:47:51;;;;;;;;;;;;;;;21.92;20.66;97717.53;5056330;28;1092;-73
2022/03/08 01:50:17;;;;;;;;;;;;;;;22.04;20.35;97705.38;5056297;28;922;-72
2022/03/08 01:52:42;;;;;;;;;;;;;;;22.57;19.87;97711.28;5056015;28;1007;-72
2022/03/08 01:55:08;;;;;;;;;;;;;;;22.58;20.03;97712.88;5071432;28;963;-73
2022/03/08 01:57:34;;;;;;;;;;;;;;;22.00;20.69;97707.53;5076155;28;1910;-73
2022/03/08 01:59:59;;;;;;;;;;;;;;;22.25;20.34;97718.84;5076220;28;960;-73
2022/03/08 02:02:25;;;;;;;;;;;;;;;22.02;20.62;97705.00;5076027;28;1053;-73
2022/03/08 02:04:50;;;;;;;;;;;;;;;22.66;20.04;97717.03;5075825;28;1100;-73
2022/03/08 02:07:16;;;;;;;;;;;;;;;22.14;20.40;97718.44;5076180;28;948;-72
2022/03/08 02:09:41;;;;;;;;;;;;;;;22.57;20.04;97711.28;5075758;28;1122;-72
2022/03/08 02:12:07;;;;;;;;;;;;;;;22.36;20.25;97716.44;5075702;28;934;-73
2022/03/08 02:14:33;;;;;;;;;;;;;;;22.70;19.66;97719.75;5075917;28;1019;-73
2022/03/08 02:16:58;;;;;;;;;;;;;;;22.65;19.91;97712.63;5075675;28;1914;-72
2022/03/08 02:19:23;;;;;;;;;;;;;;;22.53;20.08;97716.28;5075768;28;930;-72
2022/03/08 02:21:49;;;;;;;;;;;;;;;22.79;19.86;97720.59;5079041;28;1003;-72
2022/03/08 02:24:15;;;;;;;;;;;;;;;22.85;19.67;97718.00;5118987;28;948;-73
2022/03/08 02:26:40;;;;;;;;;;;;;;;22.69;19.81;97718.97;5119069;28;909;-73
2022/03/08 02:29:06;;;;;;;;;;;;;;;23.02;19.30;97719.41;5118722;28;943;-72
2022/03/08 02:31:31;;;;;;;;;;;;;;;22.72;19.86;97718.03;5118480;28;1198;-73
2022/03/08 02:33:57;;;;;;;;;;;;;;;22.87;19.68;97724.78;5118439;28;975;-72
2022/03/08 02:36:22;;;;;;;;;;;;;;;22.87;19.36;97727.63;5118336;28;1972;-73
2022/03/08 02:38:48;;;;;;;;;;;;;;;22.80;19.90;97730.72;5118539;28;1191;-73
2022/03/08 02:41:13;;;;;;;;;;;;;;;22.59;20.15;97725.81;5035228;28;1041;-73
2022/03/08 02:43:39;;;;;;;;;;;;;;;22.64;19.91;97733.75;5035349;28;1010;-73
2022/03/08 02:46:04;;;;;;;;;;;;;;;22.63;20.28;97726.47;5035388;28;1064;-72
2022/03/08 02:48:30;;;;;;;;;;;;;;;22.88;19.88;97723.56;5035325;28;1032;-72
2022/03/08 02:50:56;;;;;;;;;;;;;;;22.75;20.02;97722.81;4995663;28;877;-73
2022/03/08 02:53:21;;;;;;;;;;;;;;;22.70;19.81;97731.91;4975192;28;950;-73
2022/03/08 02:55:47;;;;;;;;;;;;;;;22.75;19.98;97739.03;4976036;28;1931;-73
2022/03/08 02:58:12;;;;;;;;;;;;;;;22.66;20.15;97736.91;4976215;28;1098;-73
2022/03/08 03:00:38;;;;;;;;;;;;;;;22.24;20.30;97745.63;4976220;28;996;-73
2022/03/08 03:03:04;;;;;;;;;;;;;;;22.40;20.35;97741.06;4976193;28;951;-72
2022/03/08 03:05:29;;;;;;;;;;;;;;;22.20;20.52;97739.25;4976009;28;1132;-72
2022/03/08 03:07:55;;;;;;;;;;;;;;;22.00;20.68;97755.69;4976245;28;1145;-72
2022/03/08 03:10:20;;;;;;;;;;;;;;;22.15;20.79;97759.69;4959664;28;983;-72
2022/03/08 03:12:46;;;;;;;;;;;;;;;22.47;20.33;97755.75;4990186;28;956;-72
2022/03/08 03:15:12;;;;;;;;;;;;;;;22.80;20.08;97753.41;4995489;28;994;-72
2022/03/08 03:17:37;;;;;;;;;;;;;;;22.54;20.33;97746.25;4997629;28;1980;-73
2022/03/08 03:20:04;;;;;;;;;;;;;;;22.50;20.04;97751.25;4975641;28;1067;-73
2022/03/08 03:22:29;;;;;;;;;;;;;;;22.43;20.26;97746.59;4957652;28;1103;-73
2022/03/08 03:24:55;;;;;;;;;;;;;;;22.97;19.68;97742.72;4995132;28;978;-73
2022/03/08 03:27:20;;;;;;;;;;;;;;;22.74;19.80;97735.41;4995174;28;1089;-72
2022/03/08 03:29:45;;;;;;;;;;;;;;;22.75;19.75;97739.81;4996213;28;1024;-72
2022/03/08 03:32:11;;;;;;;;;;;;;;;22.65;20.09;97743.81;5014765;28;1113;-73
2022/03/08 03:34:36;;;;;;;;;;;;;;;22.96;19.80;97746.03;5014708;28;1058;-72
2022/03/08 03:37:02;;;;;;;;;;;;;;;23.07;19.33;97754.94;5014420;28;1887;-72
2022/03/08 03:39:27;;;;;;;;;;;;;;;22.67;20.07;97755.50;5014644;28;1006;-73
2022/03/08 03:41:53;;;;;;;;;;;;;;;22.66;20.19;97748.25;5043385;28;859;-72
2022/03/08 03:44:18;;;;;;;;;;;;;;;22.77;19.84;97742.97;5054272;28;949;-73
2022/03/08 03:46:44;;;;;;;;;;;;;;;22.98;19.83;97740.66;5054058;28;1025;-73
2022/03/08 03:49:09;;;;;;;;;;;;;;;22.93;19.93;97741.25;5054318;28;1028;-73
2022/03/08 03:51:34;;;;;;;;;;;;;;;22.50;20.42;97745.56;5099282;28;864;-72
2022/03/08 03:54:00;;;;;;;;;;;;;;;22.36;20.58;97747.63;5117197;28;888;-73
2022/03/08 03:56:25;;;;;;;;;;;;;;;22.66;20.06;97756.75;5117299;28;1969;-73
2022/03/08 03:58:51;;;;;;;;;;;;;;;22.76;19.84;97752.75;5116889;28;963;-73
2022/03/08 04:01:17;;;;;;;;;;;;;;;21.99;20.95;97769.06;5033783;28;1324;-73
2022/03/08 04:03:42;;;;;;;;;;;;;;;22.57;20.22;97762.31;5033481;28;976;-73
2022/03/08 04:06:08;;;;;;;;;;;;;;;22.79;20.10;97756.69;5033830;28;1123;-73
2022/03/08 04:08:33;;;;;;;;;;;;;;;22.28;20.70;97763.31;5033917;28;1166;-73
2022/03/08 04:10:59;;;;;;;;;;;;;;;22.81;19.98;97768.41;5013890;28;1089;-73
2022/03/08 04:13:24;;;;;;;;;;;;;;;22.80;20.15;97766.81;5013971;28;956;-73
2022/03/08 04:15:50;;;;;;;;;;;;;;;22.88;19.87;97763.28;5013667;28;1981;-73
2022/03/08 04:18:15;;;;;;;;;;;;;;;23.05;19.46;97768.78;5014013;28;1061;-73
2022/03/08 04:20:41;;;;;;;;;;;;;;;22.68;20.10;97768.41;5013719;28;986;-73
2022/03/08 04:23:06;;;;;;;;;;;;;;;22.82;19.96;97767.94;4981210;28;998;-73
2022/03/08 04:25:32;;;;;;;;;;;;;;;22.40;20.54;97770.19;5013902;28;948;-73
2022/03/08 04:27:57;;;;;;;;;;;;;;;22.83;19.89;97769.50;5013958;28;981;-73
2022/03/08 04:30:23;;;;;;;;;;;;;;;22.47;20.48;97769.16;4968204;28;1543;-73
2022/03/08 04:32:50;;;;;;;;;;;;;;;22.77;19.86;97777.03;4977270;28;1207;-71
2022/03/08 04:35:16;;;;;;;;;;;;;;;22.70;20.16;97776.50;4984184;28;1361;-71
2022/03/08 04:37:41;;;;;;;;;;;;;;;22.69;20.01;97781.38;4954013;28;1968;-74
2022/03/08 04:40:07;;;;;;;;;;;;;;;22.95;19.95;97781.28;4934664;29;1310;-73
2022/03/08 04:42:33;;;;;;;;;;;;;;;22.72;20.25;97786.09;4910350;29;1279;-73
2022/03/08 04:44:58;;;;;;;;;;;;;;;22.62;20.09;97787.28;4935135;29;1241;-74
2022/03/08 04:47:23;;;;;;;;;;;;;;;23.01;19.82;97785.94;4943958;28;1332;-73
2022/03/08 04:49:49;;;;;;;;;;;;;;;22.62;20.14;97787.28;4946179;28;1391;-73
2022/03/08 04:52:14;;;;;;;;;;;;;;;22.60;20.26;97792.63;4939028;29;1020;-73
2022/03/08 04:54:40;;;;;;;;;;;;;;;22.41;20.48;97785.16;4955172;28;978;-73
2022/03/08 04:57:05;;;;;;;;;;;;;;;22.44;20.44;97787.09;4955146;29;1914;-73
2022/03/08 04:59:31;;;;;;;;;;;;;;;22.72;19.76;97780.44;4954670;29;1013;-74
2022/03/08 05:01:56;;;;;;;;;;;;;;;22.84;20.12;97782.44;4954777;29;1034;-73
2022/03/08 05:04:22;;;;;;;;;;;;;;;23.19;19.54;97771.09;4955165;28;1113;-73
2022/03/08 05:06:47;;;;;;;;;;;;;;;22.79;20.10;97777.34;4957407;28;1099;-73
2022/03/08 05:09:13;;;;;;;;;;;;;;;22.91;19.89;97769.31;5021812;28;1021;-73
2022/03/08 05:11:38;;;;;;;;;;;;;;;22.77;20.21;97767.72;5061251;28;1043;-73
2022/03/08 05:14:04;;;;;;;;;;;;;;;23.13;19.51;97767.28;5072940;28;958;-73
2022/03/08 05:16:29;;;;;;;;;;;;;;;22.78;20.17;97761.59;5075302;28;1980;-73
2022/03/08 05:18:54;;;;;;;;;;;;;;;22.67;20.08;97760.38;5078271;28;1077;-73
2022/03/08 05:21:20;;;;;;;;;;;;;;;22.26;20.56;97760.13;5099505;28;907;-74
2022/03/08 05:23:45;;;;;;;;;;;;;;;22.31;20.52;97753.88;5099652;28;933;-73
2022/03/08 05:26:11;;;;;;;;;;;;;;;22.27;20.75;97755.22;5099614;28;914;-73
2022/03/08 05:28:36;;;;;;;;;;;;;;;22.70;20.45;97760.25;5081386;28;1147;-73
2022/03/08 05:31:02;;;;;;;;;;;;;;;22.80;20.13;97764.78;5052694;28;1115;-73
2022/03/08 05:33:27;;;;;;;;;;;;;;;23.16;19.87;97755.00;5045847;28;1307;-71
2022/03/08 05:35:53;;;;;;;;;;;;;;;22.84;20.07;97756.91;5045689;28;1914;-71
2022/03/08 05:38:18;;;;;;;;;;;;;;;22.38;20.49;97766.22;4996422;28;2038;-72
2022/03/08 05:40:44;;;;;;;;;;;;;;;22.39;20.55;97751.59;4996870;28;1333;-71
2022/03/08 05:43:09;;;;;;;;;;;;;;;22.40;20.79;97760.91;4996279;28;1325;-71
2022/03/08 05:45:35;;;;;;;;;;;;;;;22.41;20.40;97765.31;4996581;28;1273;-72
2022/03/08 05:48:00;;;;;;;;;;;;;;;22.48;20.36;97765.06;4996555;28;1223;-71
2022/03/08 05:50:25;;;;;;;;;;;;;;;22.80;20.15;97759.09;4996633;28;1384;-72
2022/03/08 05:52:51;;;;;;;;;;;;;;;21.93;20.93;97764.41;4996646;28;1291;-72
2022/03/08 05:55:16;;;;;;;;;;;;;;;22.65;20.02;97769.34;4996342;28;1237;-72
2022/03/08 05:57:42;;;;;;;;;;;;;;;22.45;20.57;97766.00;4996457;28;1911;-71
2022/03/08 06:00:08;;;;;;;;;;;;;;;22.27;20.84;97767.38;4996436;28;1246;-71
2022/03/08 06:02:39;;;;;;;;;;;;;;;22.79;20.18;97776.56;5020313;28;1334;-72
2022/03/08 06:05:05;;;;;;;;;;;;;;;22.71;20.01;97778.84;5025442;28;1226;-72
2022/03/08 06:07:31;;;;;;;;;;;;;;;22.55;20.16;97784.69;5024478;28;1198;-71
2022/03/08 06:09:56;;;;;;;;;;;;;;;22.32;20.72;97785.84;5025469;28;1138;-72
2022/03/08 06:12:21;;;;;;;;;;;;;;;22.62;20.42;97795.78;5026823;28;1127;-72
2022/03/08 06:14:47;;;;;;;;;;;;;;;22.79;19.96;97797.19;5031324;28;1066;-72
2022/03/08 06:17:12;;;;;;;;;;;;;;;22.54;20.14;97794.44;5063881;28;1910;-72
2022/03/08 06:19:38;;;;;;;;;;;;;;;22.66;20.14;97799.28;5107965;28;1255;-71
2022/03/08 06:22:03;;;;;;;;;;;;;;;22.76;19.93;97803.81;5112568;28;1283;-71
2022/03/08 06:24:29;;;;;;;;;;;;;;;22.64;20.20;97801.81;5118731;28;966;-71
2022/03/08 06:26:54;;;;;;;;;;;;;;;22.22;20.83;97793.44;5118959;28;990;-71
2022/03/08 06:29:20;;;;;;;;;;;;;;;22.75;20.37;97802.22;5118809;28;890;-72
2022/03/08 06:31:45;;;;;;;;;;;;;;;22.72;20.38;97814.47;5118595;28;1037;-72
2022/03/08 06:34:11;;;;;;;;;;;;;;;22.74;20.16;97806.31;5118779;28;956;-71
2022/03/08 06:36:36;;;;;;;;;;;;;;;22.92;20.07;97807.75;5118677;28;1972;-72
2022/03/08 06:39:02;;;;;;;;;;;;;;;22.95;19.77;97801.16;5100752;28;966;-71
2022/03/08 06:41:28;;;;;;;;;;;;;;;22.95;19.64;97810.47;5118626;28;961;-71
2022/03/08 06:43:53;;;;;;;;;;;;;;;22.79;20.09;97802.88;5118127;28;1026;-71
2022/03/08 06:46:19;;;;;;;;;;;;;;;22.62;20.47;97810.75;5118593;28;933;-71
2022/03/08 06:48:44;;;;;;;;;;;;;;;22.55;20.53;97811.00;5118677;28;1034;-71
2022/03/08 06:51:09;;;;;;;;;;;;;;;22.63;20.59;97809.50;5118400;28;895;-71
2022/03/08 06:53:35;;;;;;;;;;;;;;;22.83;20.23;97809.22;5118221;28;1010;-71
2022/03/08 06:56:01;;;;;;;;;;;;;;;22.31;20.60;97802.06;5118313;28;1905;-72
2022/03/08 06:58:26;;;;;;;;;;;;;;;22.94;19.62;97805.25;5082134;28;986;-71
2022/03/08 07:00:52;;;;;;;;;;;;;;;22.67;20.38;97806.53;5117866;28;1024;-72
2022/03/08 07:03:17;;;;;;;;;;;;;;;22.61;20.30;97802.69;5118082;28;1105;-71
2022/03/08 07:05:43;;;;;;;;;;;;;;;22.34;20.78;97794.69;5118118;28;941;-71
2022/03/08 07:08:09;;;;;;;;;;;;;;;22.52;20.44;97806.22;5118136;28;965;-71
2022/03/08 07:10:35;;;;;;;;;;;;;;;22.55;20.14;97813.84;5081724;28;982;-71
2022/03/08 07:13:00;;;;;;;;;;;;;;;22.64;20.32;97813.16;5117924;28;917;-71
2022/03/08 07:15:25;;;;;;;;;;;;;;;22.96;19.99;97811.28;5117842;28;904;-71
2022/03/08 07:17:51;;;;;;;;;;;;;;;22.35;20.72;97814.06;5117794;28;1980;-72
2022/03/08 07:20:17;;;;;;;;;;;;;;;22.60;20.47;97818.94;5117953;28;968;-72
2022/03/08 07:22:44;;;;;;;;;;;;;;;22.92;19.89;97816.28;5117978;28;884;-71
2022/03/08 07:25:10;;;;;;;;;;;;;;;22.46;20.50;97818.59;5117423;28;926;-71
2022/03/08 07:27:36;;;;;;;;;;;;;;;22.24;20.63;97818.50;5103046;28;1497;-72
2022/03/08 07:30:02;;;;;;;;;;;;;;;23.04;19.84;97807.72;5102451;28;1519;-72
2022/03/08 07:32:28;;;;;;;;;;;;;;;22.66;20.20;97813.47;5103250;28;1197;-72
2022/03/08 07:34:53;;;;;;;;;;;;;;;22.62;20.25;97815.63;5106913;28;1422;-72
2022/03/08 07:37:19;;;;;;;;;;;;;;;22.93;20.15;97812.19;5043399;28;1973;-72
2022/03/08 07:39:44;;;;;;;;;;;;;;;22.84;19.97;97807.97;5044367;28;1213;-72
2022/03/08 07:42:10;;;;;;;;;;;;;;;22.76;20.09;97808.69;5014293;28;1225;-71
2022/03/08 07:44:37;;;;;;;;;;;;;;;22.68;20.30;97808.13;5014205;28;1401;-72
2022/03/08 07:47:03;;;;;;;;;;;;;;;22.75;20.18;97813.56;5014387;28;1221;-72
2022/03/08 07:49:28;;;;;;;;;;;;;;;22.73;20.22;97809.59;5008497;28;1168;-71
2022/03/08 07:51:53;;;;;;;;;;;;;;;22.68;20.52;97808.13;5014398;28;1258;-72
2022/03/08 07:54:19;;;;;;;;;;;;;;;22.90;19.87;97807.41;5013910;28;1241;-73
2022/03/08 07:56:44;;;;;;;;;;;;;;;22.75;19.93;97807.91;4980638;28;1899;-72
2022/03/08 07:59:11;;;;;;;;;;;;;;;22.59;20.58;97811.69;5013968;28;1296;-72
2022/03/08 08:04:12;;;;;;;;;;;;;;;24.50;18.56;97801.38;5038328;28;2284;-75
2022/03/08 08:06:37;;;;;;;;;;;;;;;24.07;18.92;97791.69;5014326;28;1542;-74
2022/03/08 08:09:03;;;;;;;;;;;;;;;23.03;20.05;97788.31;4997009;28;1666;-74
2022/03/08 08:11:28;;;;;;;;;;;;;;;23.05;20.01;97785.78;5003400;28;1597;-75
2022/03/08 08:13:54;;;;;;;;;;;;;;;23.17;20.06;97790.66;4968952;28;1573;-75
2022/03/08 08:16:20;;;;;;;;;;;;;;;23.43;20.17;97791.31;4985306;28;1902;-74
2022/03/08 08:18:45;;;;;;;;;;;;;;;23.35;19.90;97799.28;4984198;28;1548;-71
2022/03/08 08:21:11;;;;;;;;;;;;;;;24.50;18.90;97806.25;5214587;22;4007;-71
2022/03/08 08:23:36;;;;;;;;;;;;;;;24.64;18.64;97811.34;5076281;28;1690;-70
2022/03/08 08:26:02;;;;;;;;;;;;;;;24.01;19.43;97807.78;5076185;28;1448;-71
2022/03/08 08:28:27;;;;;;;;;;;;;;;23.72;19.68;97804.44;5076739;28;1586;-70
2022/03/08 08:30:53;;;;;;;;;;;;;;;23.73;19.76;97809.69;5076652;28;1327;-70
2022/03/08 08:33:18;;;;;;;;;;;;;;;23.71;19.91;97809.34;5075351;28;1677;-69
2022/03/08 08:35:43;;;;;;;;;;;;;;;23.72;20.01;97808.06;5076094;28;1899;-69
2022/03/08 08:38:09;;;;;;;;;;;;;;;23.80;20.11;97812.25;5075700;28;2207;-70
2022/03/08 08:40:35;;;;;;;;;;;;;;;23.79;20.29;97810.66;5073066;28;1714;-70
2022/03/08 08:43:00;;;;;;;;;;;;;;;23.65;20.31;97806.31;5076039;28;1676;-69
2022/03/08 08:45:26;;;;;;;;;;;;;;;23.63;20.27;97813.72;5075280;28;1600;-69
2022/03/08 08:47:51;;;;;;;;;;;;;;;23.26;20.79;97802.06;5076212;28;1475;-69
2022/03/08 08:50:17;;;;;;;;;;;;;;;23.38;20.64;97804.06;5075306;28;1495;-70
2022/03/08 08:52:43;;;;;;;;;;;;;;;23.38;20.82;97797.59;5075158;28;1741;-74
2022/03/08 08:55:08;;;;;;;;;;;;;;;23.67;20.36;97799.38;5013708;28;1555;-74
2022/03/08 08:57:34;;;;;;;;;;;;;;;23.49;21.02;97788.66;5014139;28;1910;-74
2022/03/08 09:00:00;;;;;;;;;;;;;;;23.44;20.95;97789.25;5013973;28;1537;-74
2022/03/08 09:02:25;;;;;;;;;;;;;;;23.33;21.46;97793.28;4981139;28;1672;-69
2022/03/08 09:04:51;;;;;;;;;;;;;;;23.38;21.37;97792.69;5013679;28;1527;-68
2022/03/08 09:07:16;;;;;;;;;;;;;;;23.36;21.28;97800.06;4981120;28;1586;-68
2022/03/08 09:09:41;;;;;;;;;;;;;;;23.03;21.91;97788.31;5014329;28;998;-71
2022/03/08 09:12:07;;;;;;;;;;;;;;;23.12;21.45;97788.41;5013438;28;1737;-71
2022/03/08 09:14:32;;;;;;;;;;;;;;;23.05;21.34;97785.78;5013822;28;1764;-71
2022/03/08 09:16:58;;;;;;;;;;;;;;;22.83;21.60;97786.53;4955413;29;1994;-72
2022/03/08 09:19:23;;;;;;;;;;;;;;;22.66;21.98;97795.66;4955664;29;1641;-73
2022/03/08 09:21:49;;;;;;;;;;;;;;;22.56;21.73;97794.78;4955310;29;1637;-72
2022/03/08 09:24:15;;;;;;;;;;;;;;;22.46;21.88;97793.09;4955335;29;1578;-72
2022/03/08 09:26:40;;;;;;;;;;;;;;;22.48;21.77;97799.09;4978204;28;1598;-73
2022/03/08 09:29:06;;;;;;;;;;;;;;;22.29;22.19;97798.91;4988725;28;1258;-72
2022/03/08 09:31:31;;;;;;;;;;;;;;;22.32;22.00;97797.97;4986405;28;1255;-73
2022/03/08 09:33:57;;;;;;;;;;;;;;;22.31;21.78;97804.88;4987179;28;1262;-73
2022/03/08 09:36:22;;;;;;;;;;;;;;;22.24;21.87;97790.97;4967916;28;1907;-72
2022/03/08 09:38:47;;;;;;;;;;;;;;;22.05;22.27;97806.13;4985640;28;1227;-72
2022/03/08 09:41:14;;;;;;;;;;;;;;;22.01;22.15;97805.44;4988803;28;1297;-72
2022/03/08 09:43:39;;;;;;;;;;;;;;;21.92;22.17;97802.50;4985747;28;1226;-72
2022/03/08 09:46:05;;;;;;;;;;;;;;;21.92;22.38;97803.28;4988758;28;1305;-72
2022/03/08 09:48:30;;;;;;;;;;;;;;;22.07;21.87;97800.78;5048256;28;1369;-72
2022/03/08 09:51:02;;;;;;;;;;;;;;;22.18;21.92;97804.13;5075760;28;1312;-72
2022/03/08 09:53:29;;;;;;;;;;;;;;;22.39;21.52;97790.50;5075652;28;1312;-72
2022/03/08 09:55:58;;;;;;;;;;;;;;;22.51;21.46;97781.97;5075217;28;1910;-72
2022/03/08 09:58:23;;;;;;;;;;;;;;;22.63;21.36;97792.47;5075508;28;1384;-72
2022/03/08 10:00:51;;;;;;;;;;;;;;;22.16;21.80;97800.94;5075792;28;996;-72
2022/03/08 10:03:17;;;;;;;;;;;;;;;21.93;22.23;97798.41;5079378;28;866;-72
2022/03/08 10:05:43;;;;;;;;;;;;;;;21.94;21.95;97800.00;5078962;28;922;-72
2022/03/08 10:08:10;;;;;;;;;;;;;;;22.53;21.07;97795.69;5079391;28;830;-72
2022/03/08 10:11:02;;;;;;;;;;;;;;;22.64;21.16;97790.47;5079128;28;982;-72
2022/03/08 10:13:32;;;;;;;;;;;;;;;22.22;21.41;97799.09;4997160;28;2060;-72
2022/03/08 10:16:07;;;;;;;;;;;;;;;21.95;21.86;97795.91;4997359;28;1989;-72
2022/03/08 10:18:52;;;;;;;;;;;;;;;22.29;21.59;97781.88;4997327;28;1036;-72
2022/03/08 10:21:27;;;;;;;;;;;;;;;22.55;21.38;97793.97;4997278;28;1049;-72
2022/03/08 10:23:52;;;;;;;;;;;;;;;22.66;21.00;97787.16;4997206;28;985;-72
2022/03/08 10:26:18;;;;;;;;;;;;;;;22.38;21.01;97795.34;4997434;28;939;-72
2022/03/08 10:28:51;;;;;;;;;;;;;;;22.15;21.44;97799.34;4997797;28;778;-72
2022/03/08 10:31:16;;;;;;;;;;;;;;;21.96;21.97;97800.31;4997418;28;906;-72
2022/03/08 10:33:42;;;;;;;;;;;;;;;22.25;21.53;97795.38;4997324;28;798;-72
2022/03/08 10:36:17;;;;;;;;;;;;;;;22.31;21.52;97796.38;4997124;28;1910;-72
2022/03/08 10:39:02;;;;;;;;;;;;;;;22.63;21.04;97783.19;4997005;28;923;-72
2022/03/08 10:41:27;;;;;;;;;;;;;;;22.15;21.59;97782.34;4997221;28;766;-72
2022/03/08 10:43:52;;;;;;;;;;;;;;;21.91;21.93;97783.88;4996733;28;1087;-72
2022/03/08 10:46:18;;;;;;;;;;;;;;;21.82;21.85;97788.22;4958028;29;1477;-72
2022/03/08 10:48:45;;;;;;;;;;;;;;;22.60;21.05;97784.91;4958117;29;1504;-72
2022/03/08 10:51:12;;;;;;;;;;;;;;;22.71;20.92;97783.75;4981257;28;1347;-73
2022/03/08 10:53:38;;;;;;;;;;;;;;;22.71;20.71;97773.19;4986872;28;1307;-73
2022/03/08 10:56:03;;;;;;;;;;;;;;;22.02;21.55;97779.50;4985891;28;1981;-73
2022/03/08 10:58:29;;;;;;;;;;;;;;;21.74;21.72;97792.50;4971722;28;1509;-72
2022/03/08 11:00:54;;;;;;;;;;;;;;;22.26;21.68;97779.94;4986130;28;1251;-72
2022/03/08 11:03:21;;;;;;;;;;;;;;;22.99;21.07;97776.28;4993805;28;1314;-72
2022/03/08 11:05:50;;;;;;;;;;;;;;;22.62;20.93;97781.59;4977104;28;1041;-72
2022/03/08 11:08:16;;;;;;;;;;;;;;;22.17;21.72;97785.50;4956964;29;1090;-72
2022/03/08 11:10:42;;;;;;;;;;;;;;;21.96;21.83;97798.28;4935186;29;1379;-72
2022/03/08 11:13:07;;;;;;;;;;;;;;;22.68;21.15;97796.78;4937468;29;985;-72
2022/03/08 11:15:34;;;;;;;;;;;;;;;23.09;20.55;97781.56;4938478;29;1014;-72
2022/03/08 11:18:00;;;;;;;;;;;;;;;23.14;20.46;97781.00;4953290;29;1911;-72
2022/03/08 11:20:25;;;;;;;;;;;;;;;22.82;20.64;97784.16;4938148;29;1193;-72
2022/03/08 11:22:51;;;;;;;;;;;;;;;22.62;20.97;97782.38;4953207;29;967;-72
2022/03/08 11:25:17;;;;;;;;;;;;;;;22.83;21.02;97786.53;4938148;29;1012;-72
2022/03/08 11:27:43;;;;;;;;;;;;;;;23.08;20.68;97776.38;4938328;29;954;-72
2022/03/08 11:30:09;;;;;;;;;;;;;;;22.87;20.73;97787.19;4919074;29;990;-72
2022/03/08 11:32:38;;;;;;;;;;;;;;;23.18;20.46;97783.72;4919240;29;976;-73
2022/03/08 11:35:22;;;;;;;;;;;;;;;23.04;20.64;97778.53;4918969;29;1026;-73
2022/03/08 11:37:48;;;;;;;;;;;;;;;22.61;21.12;97780.00;4936602;29;1903;-72
2022/03/08 11:40:17;;;;;;;;;;;;;;;23.00;20.74;97775.84;4937801;29;1014;-72
2022/03/08 11:42:45;;;;;;;;;;;;;;;22.89;20.34;97772.56;4955788;29;1069;-72
2022/03/08 11:45:20;;;;;;;;;;;;;;;23.22;20.26;97781.53;4956964;29;1089;-72
2022/03/08 11:47:55;;;;;;;;;;;;;;;23.39;20.38;97774.41;4957138;29;900;-72
2022/03/08 11:50:31;;;;;;;;;;;;;;;23.40;20.21;97773.13;4958146;28;1079;-72
2022/03/08 11:53:04;;;;;;;;;;;;;;;22.91;20.55;97774.97;4976253;28;1519;-72
2022/03/08 11:55:29;;;;;;;;;;;;;;;23.43;20.00;97782.00;4983267;28;1123;-72
2022/03/08 11:57:56;;;;;;;;;;;;;;;23.48;19.82;97772.88;5015182;28;1910;-72
2022/03/08 12:00:42;;;;;;;;;;;;;;;23.03;20.38;97768.44;5022425;28;893;-72
2022/03/08 12:03:15;;;;;;;;;;;;;;;23.28;20.02;97771.16;5056952;28;967;-72
2022/03/08 12:05:41;;;;;;;;;;;;;;;23.03;20.48;97771.28;5056914;28;1109;-72
2022/03/08 12:08:26;;;;;;;;;;;;;;;23.04;20.29;97770.81;5034900;28;1037;-72
2022/03/08 12:11:14;;;;;;;;;;;;;;;23.16;20.12;97763.53;5034696;28;1028;-72
2022/03/08 12:13:40;;;;;;;;;;;;;;;23.00;20.57;97760.84;5034700;28;983;-72
2022/03/08 12:16:08;;;;;;;;;;;;;;;23.10;20.42;97762.50;4995236;28;1992;-72
2022/03/08 12:18:50;;;;;;;;;;;;;;;23.09;20.58;97763.75;4995313;28;980;-73
2022/03/08 12:21:21;;;;;;;;;;;;;;;23.09;20.28;97769.44;4995220;28;1069;-72
2022/03/08 12:23:53;;;;;;;;;;;;;;;22.71;20.75;97756.16;4957950;28;1191;-72
2022/03/08 12:26:21;;;;;;;;;;;;;;;22.79;20.90;97762.38;4975299;28;1267;-72
2022/03/08 12:29:04;;;;;;;;;;;;;;;22.66;21.01;97764.47;4975020;28;1247;-72
2022/03/08 12:31:30;;;;;;;;;;;;;;;22.60;20.69;97762.22;4973457;28;1270;-72
2022/03/08 12:34:01;;;;;;;;;;;;;;;22.56;21.12;97766.41;4975250;28;1284;-72
2022/03/08 12:36:27;;;;;;;;;;;;;;;22.52;20.89;97766.53;4973150;28;1910;-72
2022/03/08 12:38:52;;;;;;;;;;;;;;;22.26;21.36;97760.13;4975092;28;1295;-72
2022/03/08 12:41:23;;;;;;;;;;;;;;;22.12;21.37;97760.56;4975150;28;1334;-72
2022/03/08 12:43:55;;;;;;;;;;;;;;;22.14;21.23;97758.09;4955242;29;1394;-72
2022/03/08 12:46:20;;;;;;;;;;;;;;;22.27;21.04;97761.69;4959006;28;1382;-72
2022/03/08 12:48:46;;;;;;;;;;;;;;;22.15;21.16;97762.50;4974915;28;1246;-71
2022/03/08 12:51:12;;;;;;;;;;;;;;;21.97;21.52;97762.28;4936351;29;1227;-71
2022/03/08 12:53:37;;;;;;;;;;;;;;;21.96;21.22;97757.84;4920901;29;1335;-71
2022/03/08 12:56:04;;;;;;;;;;;;;;;22.09;21.27;97755.81;4931766;29;1985;-71
2022/03/08 12:58:39;;;;;;;;;;;;;;;22.26;21.02;97765.00;4946057;29;1546;-71